createdAt,value
2022-07-28T00:01:07.725Z,4.50
2022-07-28T00:03:57.905Z,4.30
2022-07-28T00:06:27.125Z,4.00
2022-07-28T00:08:57.104Z,4.50
2022-07-28T00:11:50.392Z,4.80
2022-07-28T00:18:05.351Z,5.00
2022-07-28T00:24:52.783Z,5.10
2022-07-28T00:27:48.625Z,4.90
2022-07-28T00:34:18.847Z,5.40
2022-07-28T00:37:06.771Z,5.60
2022-07-28T00:40:12.796Z,5.10
2022-07-28T00:43:19.115Z,5.20
2022-07-28T00:46:07.724Z,4.90
2022-07-28T00:49:14.508Z,5.70
2022-07-28T00:52:21.269Z,5.30
2022-07-28T00:54:50.401Z,5.50
2022-07-28T00:57:55.731Z,5.30
2022-07-28T01:00:44.401Z,5.20
2022-07-28T01:03:33.959Z,5.40
2022-07-28T01:06:34.150Z,5.20
2022-07-28T01:09:43.669Z,5.70
2022-07-28T01:12:34.092Z,5.50
2022-07-28T01:15:42.487Z,5.60
2022-07-28T01:18:33.581Z,4.50
2022-07-28T01:21:08.617Z,4.60
2022-07-28T01:27:11.557Z,5.10
2022-07-28T01:30:40.450Z,5.00
2022-07-28T01:33:53.634Z,5.10
2022-07-28T01:36:43.427Z,4.90
2022-07-28T01:39:31.758Z,4.90
2022-07-28T01:42:28.414Z,5.10
2022-07-28T01:45:34.399Z,5.40
2022-07-28T01:50:52.134Z,5.10
2022-07-28T01:56:46.729Z,5.10
2022-07-28T01:59:54.899Z,5.10
2022-07-28T02:02:45.996Z,5.50
2022-07-28T02:05:34.111Z,5.00
2022-07-28T02:08:05.491Z,5.30
2022-07-28T02:11:09.869Z,5.50
2022-07-28T02:14:39.125Z,5.20
2022-07-28T02:20:36.229Z,5.50
2022-07-28T02:23:06.122Z,5.10
2022-07-28T02:25:56.842Z,5.60
2022-07-28T02:29:04.762Z,6.20
2022-07-28T02:35:09.579Z,5.60
2022-07-28T02:38:00.824Z,5.60
2022-07-28T02:40:52.766Z,4.90
2022-07-28T02:46:51.385Z,5.40
2022-07-28T02:49:57.895Z,5.70
2022-07-28T02:52:46.688Z,5.80
2022-07-28T02:55:53.304Z,5.40
2022-07-28T02:59:01.406Z,5.10
2022-07-28T03:01:49.301Z,5.30
2022-07-28T03:05:14.698Z,5.20
2022-07-28T03:08:57.718Z,5.50
2022-07-28T03:12:11.862Z,5.50
2022-07-28T03:14:41.602Z,5.60
2022-07-28T03:17:12.667Z,5.20
2022-07-28T03:22:28.506Z,6.00
2022-07-28T03:24:59.510Z,5.20
2022-07-28T03:27:50.314Z,5.60
2022-07-28T03:30:39.438Z,5.90
2022-07-28T03:33:45.626Z,5.70
2022-07-28T03:36:55.411Z,5.80
2022-07-28T03:39:47.577Z,5.40
2022-07-28T03:48:49.290Z,5.40
2022-07-28T03:51:36.038Z,5.30
2022-07-28T03:54:05.725Z,5.20
2022-07-28T03:56:34.914Z,5.40
2022-07-28T03:59:03.900Z,5.30
2022-07-28T04:01:50.990Z,5.30
2022-07-28T04:04:57.777Z,5.70
2022-07-28T04:07:46.247Z,6.00
2022-07-28T04:11:09.770Z,4.90
2022-07-28T04:13:57.643Z,5.60
2022-07-28T04:17:02.700Z,5.60
2022-07-28T04:19:31.760Z,5.40
2022-07-28T04:28:16.594Z,5.70
2022-07-28T04:31:03.897Z,5.80
2022-07-28T04:33:32.654Z,5.50
2022-07-28T04:39:44.128Z,5.00
2022-07-28T04:45:00.567Z,4.80
2022-07-28T04:52:08.119Z,4.10
2022-07-28T04:54:55.401Z,4.40
2022-07-28T05:04:12.847Z,4.20
2022-07-28T05:07:00.705Z,4.10
2022-07-28T05:10:13.400Z,4.40
2022-07-28T05:21:41.290Z,5.00
2022-07-28T05:24:28.820Z,5.10
2022-07-28T05:27:33.975Z,4.20
2022-07-28T05:30:21.490Z,4.50
2022-07-28T05:36:17.335Z,3.80
2022-07-28T05:41:52.398Z,3.90
2022-07-28T05:44:21.454Z,3.60
2022-07-28T05:50:51.915Z,3.60
2022-07-28T05:53:21.047Z,3.90
2022-07-28T05:59:16.349Z,3.50
2022-07-28T06:02:22.151Z,3.80
2022-07-28T06:05:11.891Z,3.40
2022-07-28T06:08:00.123Z,3.40
2022-07-28T06:11:01.807Z,3.70
2022-07-28T06:16:55.471Z,3.90
2022-07-28T06:19:43.962Z,4.20
2022-07-28T06:22:42.813Z,3.40
2022-07-28T06:28:40.153Z,3.30
2022-07-28T06:31:27.312Z,3.20
2022-07-28T06:33:56.851Z,3.70
2022-07-28T06:37:04.758Z,3.50
2022-07-28T06:40:11.257Z,3.10
2022-07-28T06:49:50.429Z,3.60
2022-07-28T06:53:33.646Z,3.40
2022-07-28T06:56:57.627Z,3.00
2022-07-28T06:59:44.885Z,3.20
2022-07-28T07:05:38.104Z,3.10
2022-07-28T07:08:25.841Z,3.10
2022-07-28T07:10:56.660Z,2.70
2022-07-28T07:13:43.740Z,3.40
2022-07-28T07:16:12.480Z,3.10
2022-07-28T07:19:00.083Z,3.60
2022-07-28T07:22:12.338Z,3.10
2022-07-28T07:24:41.516Z,3.50
2022-07-28T07:27:31.623Z,3.00
2022-07-28T07:30:00.237Z,3.30
2022-07-28T07:32:47.541Z,3.70
2022-07-28T07:35:34.603Z,3.00
2022-07-28T07:41:45.802Z,3.20
2022-07-28T07:45:28.431Z,2.90
2022-07-28T07:47:57.650Z,3.30
2022-07-28T07:51:04.846Z,3.20
2022-07-28T07:53:52.314Z,3.20
2022-07-28T07:56:39.791Z,3.60
2022-07-28T07:59:26.641Z,3.20
2022-07-28T08:02:13.986Z,3.30
2022-07-28T08:05:03.311Z,2.90
2022-07-28T08:07:32.595Z,3.30
2022-07-28T08:13:27.067Z,3.30
2022-07-28T08:20:14.465Z,3.00
2022-07-28T08:22:50.422Z,3.30
2022-07-28T08:28:24.001Z,2.90
2022-07-28T08:31:10.878Z,3.60
2022-07-28T08:33:58.791Z,3.40
2022-07-28T08:36:46.058Z,3.30
2022-07-28T08:39:15.229Z,3.20
2022-07-28T08:42:07.001Z,3.00
2022-07-28T08:45:04.251Z,3.40
2022-07-28T08:48:48.129Z,3.70
2022-07-28T08:51:35.589Z,3.40
2022-07-28T08:54:05.914Z,3.30
2022-07-28T08:57:35.063Z,3.00
2022-07-28T09:00:06.231Z,2.90
2022-07-28T09:03:13.113Z,3.20
2022-07-28T09:06:18.487Z,3.20
2022-07-28T09:09:07.124Z,2.90
2022-07-28T09:12:13.051Z,3.70
2022-07-28T09:15:20.612Z,3.50
2022-07-28T09:18:08.216Z,3.80
2022-07-28T09:24:02.481Z,3.20
2022-07-28T09:26:31.297Z,3.50
2022-07-28T09:29:18.172Z,3.20
2022-07-28T09:32:51.224Z,3.30
2022-07-28T09:35:43.318Z,3.50
2022-07-28T09:38:34.236Z,3.50
2022-07-28T09:41:40.081Z,3.40
2022-07-28T09:44:28.380Z,3.50
2022-07-28T09:47:15.507Z,3.60
2022-07-28T09:50:02.332Z,3.40
2022-07-28T09:57:10.657Z,3.60
2022-07-28T10:07:09.625Z,3.50
2022-07-28T10:10:20.309Z,3.00
2022-07-28T10:13:26.925Z,3.00
2022-07-28T10:16:13.184Z,3.60
2022-07-28T10:18:41.913Z,3.30
2022-07-28T10:21:47.434Z,3.50
2022-07-28T10:24:36.342Z,2.90
2022-07-28T10:27:25.716Z,3.30
2022-07-28T10:30:15.267Z,3.00
2022-07-28T10:33:02.850Z,3.00
2022-07-28T10:42:22.230Z,3.10
2022-07-28T10:48:16.659Z,2.90
2022-07-28T10:50:48.774Z,3.20
2022-07-28T10:53:30.404Z,2.90
2022-07-28T10:57:08.182Z,3.00
2022-07-28T11:00:24.475Z,2.80
2022-07-28T11:02:58.211Z,3.10
2022-07-28T11:12:33.610Z,2.70
2022-07-28T11:21:17.454Z,2.70
2022-07-28T11:24:05.787Z,2.90
2022-07-28T11:27:48.005Z,2.70
2022-07-28T11:30:52.397Z,2.40
2022-07-28T11:34:18.273Z,2.70
2022-07-28T11:37:02.344Z,2.60
2022-07-28T11:39:51.420Z,2.50
2022-07-28T11:42:51.592Z,2.30
2022-07-28T11:45:59.820Z,2.90
2022-07-28T11:55:17.449Z,2.90
2022-07-28T12:03:54.965Z,2.70
2022-07-28T12:07:02.159Z,2.60
2022-07-28T12:09:41.363Z,2.70
2022-07-28T12:12:11.276Z,2.60
2022-07-28T12:15:06.723Z,2.70
2022-07-28T12:18:30.399Z,2.50
2022-07-28T12:21:35.135Z,2.90
2022-07-28T12:27:31.959Z,2.80
2022-07-28T12:30:28.723Z,2.70
2022-07-28T12:33:29.720Z,2.60
2022-07-28T12:36:00.421Z,2.70
2022-07-28T12:39:12.802Z,2.50
2022-07-28T12:42:19.012Z,2.60
2022-07-28T12:45:08.472Z,2.50
2022-07-28T12:47:57.118Z,2.20
2022-07-28T12:51:49.381Z,3.00
2022-07-28T12:55:12.510Z,2.70
2022-07-28T12:58:18.184Z,3.00
2022-07-28T13:03:52.004Z,2.20
2022-07-28T13:06:41.460Z,2.80
2022-07-28T13:12:20.212Z,2.80
2022-07-28T13:14:52.245Z,2.80
2022-07-28T13:18:16.519Z,2.80
2022-07-28T13:27:02.605Z,2.30
2022-07-28T13:33:00.106Z,2.40
2022-07-28T13:36:24.802Z,2.30
2022-07-28T13:39:31.327Z,2.60
2022-07-28T13:42:19.171Z,2.80
2022-07-28T13:45:42.725Z,2.80
2022-07-28T13:48:57.714Z,2.40
2022-07-28T13:51:28.447Z,2.90
2022-07-28T13:54:15.161Z,1.90
2022-07-28T13:57:02.230Z,2.70
2022-07-28T13:59:49.954Z,2.40
2022-07-28T14:03:14.110Z,2.40
2022-07-28T14:06:38.061Z,2.70
2022-07-28T14:12:13.568Z,3.00
2022-07-28T14:14:48.513Z,2.60
2022-07-28T14:17:44.751Z,2.70
2022-07-28T14:21:27.535Z,2.50
2022-07-28T14:23:56.605Z,2.80
2022-07-28T14:26:43.791Z,3.10
2022-07-28T14:29:31.685Z,3.40
2022-07-28T14:32:18.652Z,3.20
2022-07-28T14:34:47.369Z,3.00
2022-07-28T14:37:17.144Z,3.60
2022-07-28T14:39:46.187Z,2.70
2022-07-28T14:42:14.916Z,3.50
2022-07-28T14:45:05.060Z,3.70
2022-07-28T14:54:03.460Z,3.20
2022-07-28T14:56:32.231Z,3.10
2022-07-28T14:59:19.429Z,3.50
2022-07-28T15:02:29.669Z,2.60
2022-07-28T15:05:34.804Z,3.50
2022-07-28T15:08:27.989Z,3.30
2022-07-28T15:10:58.488Z,4.10
2022-07-28T15:14:23.047Z,3.70
2022-07-28T15:17:10.669Z,3.70
2022-07-28T15:20:37.556Z,3.90
2022-07-28T15:23:08.359Z,3.90
2022-07-28T15:25:56.041Z,3.20
2022-07-28T15:33:03.545Z,3.40
2022-07-28T15:35:56.503Z,3.70
2022-07-28T15:39:26.344Z,3.10
2022-07-28T15:42:36.421Z,3.40
2022-07-28T15:47:58.359Z,3.80
2022-07-28T15:51:03.090Z,3.10
2022-07-28T15:54:09.494Z,4.20
2022-07-28T15:56:38.638Z,4.20
2022-07-28T15:59:26.776Z,4.30
2022-07-28T16:05:21.985Z,4.10
2022-07-28T16:08:08.951Z,3.80
2022-07-28T16:11:13.882Z,3.10
2022-07-28T16:14:20.035Z,3.20
2022-07-28T16:17:06.668Z,3.10
2022-07-28T16:19:48.593Z,3.20
2022-07-28T16:22:40.165Z,2.80
2022-07-28T16:25:46.130Z,2.30
2022-07-28T16:28:15.826Z,2.50
2022-07-28T16:44:25.411Z,2.10
2022-07-28T16:49:46.021Z,2.00
2022-07-28T16:52:51.448Z,2.00
2022-07-28T16:59:03.732Z,2.30
2022-07-28T17:01:51.502Z,2.90
2022-07-28T17:04:57.524Z,2.90
2022-07-28T17:10:31.983Z,2.50
2022-07-28T17:13:00.979Z,2.80
2022-07-28T17:15:48.850Z,2.70
2022-07-28T17:19:11.809Z,3.10
2022-07-28T17:21:40.780Z,3.00
2022-07-28T17:27:38.549Z,3.90
2022-07-28T17:34:28.928Z,2.80
2022-07-28T17:37:00.784Z,3.10
2022-07-28T17:39:48.359Z,2.90
2022-07-28T17:42:54.165Z,3.60
2022-07-28T17:45:26.556Z,3.70
2022-07-28T17:48:31.749Z,3.40
2022-07-28T17:55:02.055Z,2.80
2022-07-28T17:58:29.903Z,3.70
2022-07-28T18:01:34.824Z,3.20
2022-07-28T18:04:21.800Z,3.50
2022-07-28T18:07:30.293Z,3.50
2022-07-28T18:10:36.116Z,3.50
2022-07-28T18:13:25.172Z,3.50
2022-07-28T18:15:54.317Z,3.20
2022-07-28T18:19:19.029Z,2.90
2022-07-28T18:23:00.393Z,2.80
2022-07-28T18:26:24.091Z,2.80
2022-07-28T18:29:11.017Z,2.90
2022-07-28T18:32:00.107Z,3.90
2022-07-28T18:34:29.428Z,3.00
2022-07-28T18:37:17.195Z,3.10
2022-07-28T18:39:46.190Z,3.20
2022-07-28T18:42:15.656Z,3.10
2022-07-28T18:44:44.350Z,3.10
2022-07-28T18:47:13.199Z,3.50
2022-07-28T18:50:00.629Z,2.80
2022-07-28T18:53:05.092Z,3.10
2022-07-28T18:55:52.230Z,3.30
2022-07-28T18:58:39.916Z,2.90
2022-07-28T19:10:27.398Z,3.20
2022-07-28T19:13:00.239Z,2.90
2022-07-28T19:16:05.503Z,2.90
2022-07-28T19:18:34.318Z,3.50
2022-07-28T19:21:03.348Z,3.50
2022-07-28T19:24:09.083Z,3.30
2022-07-28T19:30:36.826Z,3.50
2022-07-28T19:33:29.467Z,3.90
2022-07-28T19:36:17.377Z,3.50
2022-07-28T19:39:05.130Z,3.70
2022-07-28T19:42:09.758Z,3.50
2022-07-28T19:45:15.072Z,3.70
2022-07-28T19:48:03.314Z,3.60
2022-07-28T19:51:09.002Z,3.50
2022-07-28T19:53:37.991Z,3.40
2022-07-28T19:56:45.673Z,4.00
2022-07-28T19:59:52.209Z,3.90
2022-07-28T20:05:45.924Z,4.20
2022-07-28T20:15:39.403Z,3.80
2022-07-28T20:18:27.099Z,3.80
2022-07-28T20:24:39.029Z,4.20
2022-07-28T20:33:38.978Z,4.30
2022-07-28T20:36:30.042Z,3.40
2022-07-28T20:39:07.854Z,3.60
2022-07-28T20:41:50.658Z,3.60
2022-07-28T20:45:13.735Z,4.00
2022-07-28T20:53:57.944Z,3.70
2022-07-28T20:59:32.678Z,4.00
2022-07-28T21:12:13.200Z,4.30
2022-07-28T21:15:20.208Z,4.20
2022-07-28T21:24:58.923Z,3.80
2022-07-28T21:28:04.848Z,4.70
2022-07-28T21:31:09.979Z,4.80
2022-07-28T21:33:57.508Z,4.20
2022-07-28T21:40:46.678Z,3.50
2022-07-28T21:44:09.771Z,4.50
2022-07-28T21:47:00.274Z,4.50
2022-07-28T21:49:47.349Z,4.20
2022-07-28T21:52:37.991Z,4.20
2022-07-28T21:58:33.044Z,4.80
2022-07-28T22:01:23.539Z,4.30
2022-07-28T22:04:29.247Z,4.30
2022-07-28T22:07:35.115Z,3.90
2022-07-28T22:17:29.363Z,4.50
2022-07-28T22:20:35.969Z,3.90
2022-07-28T22:23:05.134Z,4.20
2022-07-28T22:26:23.038Z,4.40
2022-07-28T22:29:28.399Z,4.20
2022-07-28T22:35:23.354Z,4.40
2022-07-28T22:38:11.122Z,4.50
2022-07-28T22:41:17.009Z,4.20
2022-07-28T22:44:06.961Z,3.90
2022-07-28T22:46:36.064Z,4.20
2022-07-28T22:51:52.620Z,3.70
2022-07-28T22:54:21.395Z,3.60
2022-07-28T22:57:27.922Z,4.30
2022-07-28T22:59:57.839Z,4.80
2022-07-28T23:02:28.141Z,4.10
2022-07-28T23:05:37.644Z,4.20
2022-07-28T23:08:26.340Z,4.00
2022-07-28T23:11:32.909Z,4.10
2022-07-28T23:14:21.369Z,4.70
2022-07-28T23:17:09.402Z,4.30
2022-07-28T23:19:39.220Z,3.90
2022-07-28T23:25:33.116Z,4.20
2022-07-28T23:28:21.059Z,4.00
2022-07-28T23:31:27.504Z,4.00
2022-07-28T23:34:16.569Z,4.20
2022-07-28T23:37:05.402Z,3.80
2022-07-28T23:39:34.979Z,4.00
2022-07-28T23:42:41.344Z,3.30
2022-07-28T23:46:25.046Z,3.90
2022-07-28T23:49:31.967Z,4.40
2022-07-28T23:52:01.687Z,4.50
2022-07-28T23:54:31.816Z,3.70
2022-07-28T23:57:02.512Z,4.20
